ADDS METAR Data INFO
IDs: Format: Raw Decoded Include TAF

Data at: 0339 UTC 24 Feb 2017

METAR for:KPEZ (Pleasanton Muni, TX, US)
Text:KPEZ 240335Z AUTO 12007KT 7SM CLR 21/16 A2962 RMK AO2 T02050162
Temperature: 20.5°C ( 69°F)
Dewpoint: 16.2°C ( 61°F) [RH = 76%]
Pressure (altimeter):29.62 inches Hg (1003.1 mb)
Winds:from the ESE (120 degrees) at 8 MPH (7 knots; 3.6 m/s)
Visibility: 7 sm ( 11 km)
Ceiling:at least 12,000 feet AGL
Clouds:sky clear below 12,000 feet AGL
QC Flag:automated observation with no human augmentation


Page loaded:  03:39 UTC  |   07:39 PM Pacific  |   08:39 PM Mountain  |   09:39 PM Central  |   10:39 PM Eastern

 

ADVISORIES

FORECASTS

FORECASTS

OBSERVATIONS

USER TOOLS

ABOUT US